nws-alerts: Checking more than four warning/county codes can delay the loading of your pages. You should use a cron job to get the data.

Nearby METAR Reports

 

KFCI - Richmond/Chester, Virginia, USA
Distance from station: ESE 7mi, 11km
Updated: Sun, 02-Oct-2022 3:56am EDT
Overcast
Overcast
 Wind from calm
Wind: Calm
Temperature: 59°F , 15°C
Dew Point: 59°F , 15°C
Humidity: 100%
Barometer: 29.84 inHg , 1010.5 hPa
Clouds: Overcast
Visibility: 10 miles , 16 km
Cloud details: Overcast 1700 ft
2022/10/02 07:56 KFCI 020756Z AUTO 00000KT 10SM OVC017 15/15 A2984 RMK AO2 SLP116 T01500150
KRIC - Richmond, Virginia, USA
Distance from station: ENE 19mi, 30km
Updated: Sun, 02-Oct-2022 3:54am EDT
Overcast
Overcast
 Wind from calm
Wind: Calm
Temperature: 61°F , 16°C
Dew Point: 57°F , 14°C
Humidity: 88%
Barometer: 29.84 inHg , 1010.5 hPa
Clouds: Overcast
Visibility: 10 miles , 16 km
Cloud details: Overcast 8500 ft
2022/10/02 07:54 KRIC 020754Z 00000KT 10SM OVC085 16/14 A2984 RMK AO2 SLP107 T01560139
 
KPTB - Petersburg, Virginia, USA
Distance from station: SSE 19mi, 31km
Updated: Sun, 02-Oct-2022 4:35am EDT
Overcast
Overcast
 Wind from calm
Wind: Calm
Temperature: 59°F , 15°C
Dew Point: 57°F , 14°C
Humidity: 94%
Barometer: 29.84 inHg , 1010.5 hPa
Clouds: Overcast
Visibility: 10 miles , 16 km
Cloud details: Overcast 1600 ft
2022/10/02 08:35 KPTB 020835Z AUTO 00000KT 10SM OVC016 15/14 A2984 RMK AO2 T01450138
KOFP - Richmond/Hanover, Virginia, USA
Distance from station: NNE 22mi, 36km
Updated: Sun, 02-Oct-2022 4:08am EDT
Overcast
Overcast
 Wind from calm
Wind: Calm
Temperature: 59°F , 15°C
Dew Point: 57°F , 14°C
Humidity: 94%
Barometer: 29.85 inHg , 1010.8 hPa
Clouds: Overcast
Visibility: 9 miles , 14 km
Cloud details: Mostly cloudy 200 ft
Overcast 8500 ft
2022/10/02 08:08 KOFP 020808Z AUTO 00000KT 9SM BKN002 OVC085 15/14 A2985 RMK AO2 T01500144
 
KW96 - Quinton, Virginia, USA
Distance from station: E 28mi, 46km
Updated: Sun, 02-Oct-2022 4:35am EDT
Overcast
Overcast
 Wind from calm
Wind: Calm
Temperature: 54°F , 12°C
Dew Point: 54°F , 12°C
Humidity: 100%
Barometer: 29.83 inHg , 1010.2 hPa
Clouds: Overcast
Visibility: 10 miles , 16 km
Cloud details: Overcast 8500 ft
2022/10/02 08:35 KW96 020835Z AUTO 00000KT 10SM OVC085 12/12 A2983 RMK AO1 T01220122
KBKT - Blackstone Army, Virginia, USA
Distance from station: SW 30mi, 48km
Updated: Sun, 02-Oct-2022 4:35am EDT
Overcast
Overcast
 Wind from S
Wind: S 3 mph , 6 km/h
Temperature: 59°F , 15°C
Dew Point: 59°F , 15°C
Humidity: 100%
Barometer: 29.84 inHg , 1010.5 hPa
Clouds: Overcast
Visibility: 10 miles , 16 km
Cloud details: Overcast 700 ft
2022/10/02 08:35 KBKT 020835Z AUTO 19003KT 10SM OVC007 15/15 A2984 RMK AO1 T01500150
 
KW81 - Crewe, Virginia, USA
Distance from station: SW 30mi, 49km
Updated: Sun, 02-Oct-2022 4:35am EDT
Overcast
Overcast
 Wind from calm
Wind: Calm
Temperature: 57°F , 14°C
Dew Point: 55°F , 13°C
Humidity: 94%
Barometer: 29.84 inHg , 1010.5 hPa
Clouds: Overcast
Visibility: 5 miles , 8 km
Cloud details: Overcast 300 ft
2022/10/02 08:35 KW81 020835Z AUTO 00000KT 5SM OVC003 14/13 A2984 RMK AO1 T01410127
K7W4 - Bumpass, Virginia, USA
Distance from station: N 38mi, 61km
Updated: Sun, 02-Oct-2022 4:35am EDT
Overcast
Overcast
 Wind from calm
Wind: Calm
Temperature: 59°F , 15°C
Dew Point: 59°F , 15°C
Humidity: 100%
Barometer: 29.84 inHg , 1010.5 hPa
Clouds: Overcast
Visibility: 7 miles , 11 km
Cloud details: Partly cloudy 200 ft
Partly cloudy 1900 ft
Overcast 5500 ft
2022/10/02 08:35 K7W4 020835Z AUTO 00000KT 7SM SCT002 SCT019 OVC055 15/15 A2984 RMK AO1 T01460146
 
KFVX - Farmville, Virginia, USA
Distance from station: W 43mi, 69km
Updated: Sun, 02-Oct-2022 4:35am EDT
Mist, Overcast
Mist, Overcast
 Wind from NNE
Wind: NNE 5 mph , 7 km/h
Temperature: 57°F , 14°C
Dew Point: 57°F , 14°C
Humidity: 100%
Barometer: 29.83 inHg , 1010.2 hPa
Summary: Mist
Clouds: Overcast
Visibility: 3 miles , 5 km
Cloud details: Overcast 300 ft
2022/10/02 08:35 KFVX 020835Z AUTO 02004KT 3SM BR OVC003 14/14 A2983 RMK AO2 T01440144
KW31 - Kenbridge, Virginia, USA
Distance from station: SW 43mi, 70km
Updated: Sun, 02-Oct-2022 4:35am EDT
Overcast
Overcast
 Wind from calm
Wind: Calm
Temperature: 57°F , 14°C
Dew Point: 57°F , 14°C
Humidity: 100%
Barometer: 29.83 inHg , 1010.2 hPa
Clouds: Overcast
Visibility: 1 1/2 miles , 2.4 km
Cloud details: Overcast 300 ft
2022/10/02 08:35 KW31 020835Z AUTO 00000KT 1 1/2SM OVC003 14/14 A2983 RMK AO1 T01400140
 
KLKU - Louisa, Virginia, USA
Distance from station: NNW 44mi, 72km
Updated: Sun, 02-Oct-2022 4:35am EDT
Fog, Overcast
Fog, Overcast
 Wind from NNW
Wind: NNW 5 mph , 7 km/h
Temperature: 57°F , 14°C
Barometer: 29.86 inHg , 1011.2 hPa
Summary: Fog
Clouds: Overcast
Visibility: 1/2 mile , 0.8 km
Cloud details: Overcast 200 ft
2022/10/02 08:35 KLKU 020835Z AUTO 33004KT 1/2SM FG OVC002 14/ A2986 RMK AO2 T0137////
KLVL - Lawrenceville, Virginia, USA
Distance from station: S 46mi, 75km
Updated: Sun, 02-Oct-2022 4:35am EDT
Overcast
Overcast
 Wind from calm
Wind: Calm
Temperature: 61°F , 16°C
Dew Point: 59°F , 15°C
Humidity: 94%
Barometer: 29.84 inHg , 1010.5 hPa
Clouds: Overcast
Visibility: 10 miles , 16 km
Cloud details: Partly cloudy 2400 ft
Mostly cloudy 5000 ft
Overcast 8000 ft
2022/10/02 08:35 KLVL 020835Z AUTO 00000KT 10SM SCT024 BKN050 OVC080 16/15 A2984 RMK AO1 T01570152
 
KAKQ - Norfolk/Wakefld, Virginia, USA
Distance from station: SE 47mi, 75km
Updated: Sun, 02-Oct-2022 3:54am EDT
Overcast
Overcast
 Wind from calm
Wind: Calm
Temperature: 57°F , 14°C
Dew Point: 55°F , 13°C
Humidity: 94%
Barometer: 29.83 inHg , 1010.2 hPa
Clouds: Overcast
Visibility: 7 miles , 11 km
Cloud details: Overcast 6500 ft
2022/10/02 07:54 KAKQ 020754Z AUTO 00000KT 7SM OVC065 14/13 A2983 RMK AO2 SLP103 T01390133 $
KFYJ - West Point, Virginia, USA
Distance from station: E 48mi, 78km
Updated: Sun, 02-Oct-2022 4:35am EDT
Mostly cloudy
Mostly cloudy
 Wind from calm
Wind: Calm
Temperature: 54°F , 12°C
Dew Point: 54°F , 12°C
Humidity: 100%
Barometer: 29.85 inHg , 1010.8 hPa
Clouds: Mostly cloudy
Visibility: 10 miles , 16 km
Cloud details: Partly cloudy 7000 ft
Mostly cloudy 8000 ft
2022/10/02 08:35 KFYJ 020835Z AUTO 00000KT 10SM SCT070 BKN080 12/12 A2985 RMK AO1 T01210118